Time;durP1;ratioP1;P1;durP2;ratioP2;P2;SDS_P1;SDS_P2;PMS_P1;PMS_P2;Temp;Humidity;BMP_temperature;BMP_pressure;BME280_temperature;BME280_humidity;BME280_pressure;Samples;Min_cycle;Max_cycle;Signal;HPM_P1;HPM_P2
2022/11/18 00:02:11;;;;;;;29.67;14.68;;;;;;;0.17;100.00;99871.41;7389942;19;20202;-52
2022/11/18 00:04:41;;;;;;;33.65;14.98;;;;;;;0.12;100.00;99866.00;7391400;19;20129;-54
2022/11/18 00:07:11;;;;;;;33.83;16.05;;;;;;;0.09;100.00;99870.88;7389002;19;20190;-58
2022/11/18 00:09:43;;;;;;;36.83;15.85;;;;;;;0.14;100.00;99873.72;7389299;19;20174;-56
2022/11/18 00:14:54;;;;;;;32.53;15.35;;;;;;;0.07;100.00;99874.97;7388247;19;20137;-54
2022/11/18 00:17:24;;;;;;;28.83;14.82;;;;;;;0.09;100.00;99875.03;7385248;19;20217;-59
2022/11/18 00:19:53;;;;;;;33.45;15.68;;;;;;;0.09;100.00;99880.13;7387455;19;20167;-52
2022/11/18 00:22:23;;;;;;;33.33;15.05;;;;;;;0.06;100.00;99875.72;7385391;19;20197;-54
2022/11/18 00:25:00;;;;;;;32.60;15.07;;;;;;;0.11;100.00;99879.47;7388812;19;20154;-52
2022/11/18 00:27:31;;;;;;;32.42;14.40;;;;;;;0.09;100.00;99877.59;7384847;19;20412;-55
2022/11/18 00:30:00;;;;;;;30.52;14.95;;;;;;;0.11;100.00;99882.00;7386952;19;20170;-56
2022/11/18 00:32:31;;;;;;;32.70;15.30;;;;;;;0.12;100.00;99882.88;7385863;19;20194;-56
2022/11/18 00:35:01;;;;;;;35.17;16.00;;;;;;;0.13;100.00;99888.06;7387865;19;20150;-55
2022/11/18 00:37:30;;;;;;;32.08;14.40;;;;;;;0.13;100.00;99890.63;7384825;19;20190;-50
2022/11/18 00:40:02;;;;;;;32.83;14.23;;;;;;;0.04;100.00;99889.94;7386195;19;20674;-55
2022/11/18 00:45:15;;;;;;;33.67;15.60;;;;;;;0.07;100.00;99895.25;7395945;19;20628;-59
2022/11/18 00:47:44;;;;;;;32.65;15.88;;;;;;;0.07;100.00;99905.41;7393811;19;20423;-53
2022/11/18 00:50:14;;;;;;;33.65;15.20;;;;;;;0.01;100.00;99904.97;7393608;19;20632;-52
2022/11/18 00:52:44;;;;;;;32.55;14.85;;;;;;;-0.01;100.00;99907.41;7399678;19;20184;-54
2022/11/18 00:55:16;;;;;;;33.65;15.32;;;;;;;-0.01;100.00;99909.94;7395698;19;20732;-56
2022/11/18 00:57:46;;;;;;;33.40;15.73;;;;;;;-0.01;100.00;99915.00;7394087;19;20179;-58
2022/11/18 01:00:16;;;;;;;31.10;14.07;;;;;;;-0.08;100.00;99909.38;7393508;19;20168;-53
2022/11/18 01:02:46;;;;;;;35.60;15.82;;;;;;;-0.10;100.00;99916.00;7395018;19;20401;-55
2022/11/18 01:05:15;;;;;;;30.30;14.90;;;;;;;-0.09;100.00;99918.66;7396097;19;20134;-54
2022/11/18 01:07:45;;;;;;;28.10;13.63;;;;;;;-0.12;100.00;99917.56;7372928;19;20413;-49
2022/11/18 01:10:17;;;;;;;28.85;14.38;;;;;;;-0.20;100.00;99917.00;7393810;19;20167;-52
2022/11/18 01:15:29;;;;;;;31.20;15.23;;;;;;;-0.23;100.00;99926.91;7394092;19;20119;-54
2022/11/18 01:17:58;;;;;;;35.08;16.67;;;;;;;-0.27;100.00;99923.28;7396455;19;20127;-52
2022/11/18 01:20:28;;;;;;;31.77;15.82;;;;;;;-0.27;100.00;99928.34;7392092;19;20177;-54
2022/11/18 01:22:57;;;;;;;31.63;15.38;;;;;;;-0.24;100.00;99933.66;7395478;19;20134;-53
2022/11/18 01:25:29;;;;;;;36.65;16.08;;;;;;;-0.24;100.00;99933.66;7394375;19;20139;-50
2022/11/18 01:27:59;;;;;;;36.28;17.77;;;;;;;-0.28;100.00;99937.63;7396249;19;20137;-51
2022/11/18 01:30:28;;;;;;;37.88;16.63;;;;;;;-0.28;100.00;99936.75;7391469;19;20185;-52
2022/11/18 01:32:57;;;;;;;34.63;16.55;;;;;;;-0.29;100.00;99942.59;7396794;19;20135;-53
2022/11/18 01:35:27;;;;;;;35.47;15.98;;;;;;;-0.34;100.00;99939.72;7393287;19;20135;-51
2022/11/18 01:37:56;;;;;;;38.28;17.20;;;;;;;-0.33;100.00;99948.19;7395563;19;20139;-56
2022/11/18 01:40:29;;;;;;;35.58;16.05;;;;;;;-0.31;100.00;99951.75;7391316;19;20174;-51
2022/11/18 01:42:58;;;;;;;32.85;15.27;;;;;;;-0.33;100.00;99949.09;7395926;19;20131;-50
2022/11/18 01:45:37;;;;;;;39.35;16.42;;;;;;;-0.35;100.00;99949.75;7390156;19;20624;-54
2022/11/18 01:48:08;;;;;;;35.60;17.05;;;;;;;-0.37;100.00;99951.28;7400023;19;20499;-51
2022/11/18 01:50:40;;;;;;;38.53;16.30;;;;;;;-0.35;100.00;99957.34;7391934;19;20218;-52
2022/11/18 01:53:13;;;;;;;34.63;17.00;;;;;;;-0.30;100.00;99958.56;7394340;19;20135;-55
2022/11/18 01:55:47;;;;;;;41.53;16.17;;;;;;;-0.30;100.00;99963.66;7393441;19;20686;-53
2022/11/18 01:58:20;;;;;;;35.50;16.77;;;;;;;-0.35;100.00;99965.84;7396527;19;20137;-52
2022/11/18 02:00:50;;;;;;;37.60;17.95;;;;;;;-0.34;100.00;99969.25;7393953;19;20190;-51
2022/11/18 02:03:19;;;;;;;38.13;17.90;;;;;;;-0.32;100.00;99971.13;7395570;19;20500;-54
2022/11/18 02:05:50;;;;;;;34.03;17.08;;;;;;;-0.30;100.00;99973.78;7393060;19;20201;-53
2022/11/18 02:08:20;;;;;;;36.75;18.35;;;;;;;-0.32;100.00;99971.13;7395013;19;20645;-53
2022/11/18 02:10:52;;;;;;;38.42;18.08;;;;;;;-0.34;100.00;99976.84;7392345;19;20205;-51
2022/11/18 02:13:22;;;;;;;36.25;18.23;;;;;;;-0.35;100.00;99978.53;7395606;19;20631;-55
2022/11/18 02:15:57;;;;;;;33.00;16.45;;;;;;;-0.38;100.00;99975.75;7393602;19;20194;-54
2022/11/18 02:18:32;;;;;;;38.35;17.42;;;;;;;-0.42;100.00;99978.81;7390227;19;20131;-52
2022/11/18 02:21:13;;;;;;;38.97;18.55;;;;;;;-0.41;100.00;99980.63;7395006;19;20197;-52
2022/11/18 02:24:03;;;;;;;40.78;19.17;;;;;;;-0.22;100.00;99982.81;7395588;19;20660;-55
2022/11/18 02:27:10;;;;;;;56.53;25.27;;;;;;;0.01;100.00;99986.16;7390552;19;20205;-56
2022/11/18 02:29:44;;;;;;;53.03;22.80;;;;;;;0.08;100.00;99983.28;7393485;19;20181;-55
2022/11/18 02:32:17;;;;;;;46.03;19.75;;;;;;;0.13;100.00;99979.41;7392683;19;20678;-51
2022/11/18 02:34:50;;;;;;;48.63;20.95;;;;;;;0.03;100.00;99979.53;7395095;19;20142;-56
2022/11/18 02:37:24;;;;;;;46.65;22.38;;;;;;;0.05;100.00;99972.88;7392124;19;20194;-53
2022/11/18 02:39:58;;;;;;;47.28;21.05;;;;;;;0.03;100.00;99978.63;7393266;19;20162;-51
2022/11/18 02:42:29;;;;;;;43.95;20.52;;;;;;;0.04;100.00;99973.66;7392674;19;20232;-54
2022/11/18 02:45:05;;;;;;;41.83;20.08;;;;;;;0.15;100.00;99976.09;7394613;19;20142;-53
2022/11/18 02:47:36;;;;;;;41.97;18.45;;;;;;;-0.01;100.00;99978.41;7391372;19;20195;-54
2022/11/18 02:50:09;;;;;;;41.50;19.08;;;;;;;-0.04;100.00;99982.41;7393053;19;20169;-53
2022/11/18 02:52:40;;;;;;;37.30;18.50;;;;;;;-0.02;100.00;99990.97;7389559;19;20187;-49
2022/11/18 02:55:12;;;;;;;36.25;15.85;;;;;;;0.03;100.00;99989.66;7397145;19;20146;-55
2022/11/18 02:57:43;;;;;;;38.13;16.90;;;;;;;0.06;100.00;99994.94;7391055;19;20186;-51
2022/11/18 03:00:16;;;;;;;34.20;17.73;;;;;;;-0.01;100.00;99996.19;7392556;19;20155;-52
2022/11/18 03:02:47;;;;;;;36.88;18.08;;;;;;;-0.09;100.00;100001.47;7393443;19;20651;-54
2022/11/18 03:05:20;;;;;;;34.95;16.83;;;;;;;-0.17;100.00;100005.97;7394704;19;20123;-52
2022/11/18 03:07:54;;;;;;;30.83;15.70;;;;;;;-0.24;100.00;100003.75;7392918;19;20546;-54
2022/11/18 03:10:25;;;;;;;31.58;15.68;;;;;;;-0.31;100.00;100002.44;7389242;19;20200;-54
2022/11/18 03:13:01;;;;;;;32.85;15.82;;;;;;;-0.37;100.00;100009.59;7391344;19;20166;-49
2022/11/18 03:15:37;;;;;;;36.03;16.23;;;;;;;-0.42;100.00;100007.59;7393587;19;20138;-54
2022/11/18 03:18:17;;;;;;;31.58;16.38;;;;;;;-0.42;100.00;100010.13;7392929;19;20126;-52
2022/11/18 03:20:51;;;;;;;28.73;14.70;;;;;;;-0.45;100.00;100020.03;7388713;19;20182;-50
2022/11/18 03:23:26;;;;;;;31.95;16.17;;;;;;;0.78;100.00;100015.16;7393794;19;20141;-50
2022/11/18 03:25:57;;;;;;;34.20;17.10;;;;;;;1.92;100.00;100009.91;7391064;19;20200;-54
2022/11/18 03:28:31;;;;;;;37.27;17.10;;;;;;;1.72;100.00;100025.66;7392773;19;20392;-55
2022/11/18 03:31:07;;;;;;;58.83;26.43;;;;;;;1.80;100.00;100025.28;7390321;19;20413;-53
2022/11/18 03:33:38;;;;;;;80.80;36.43;;;;;;;1.77;100.00;100022.50;7393307;19;20403;-54
2022/11/18 03:36:09;;;;;;;61.70;29.40;;;;;;;2.11;100.00;100034.91;7390116;19;20401;-53
2022/11/18 03:38:42;;;;;;;67.80;32.87;;;;;;;1.89;100.00;100042.03;7391441;19;20391;-55
2022/11/18 03:41:12;;;;;;;56.50;26.73;;;;;;;1.88;100.00;100050.44;7393130;19;20951;-55
2022/11/18 03:43:46;;;;;;;34.40;18.83;;;;;;;2.12;100.00;100055.38;7392338;19;20430;-55
2022/11/18 03:46:22;;;;;;;27.70;15.80;;;;;;;2.36;100.00;100065.34;7390766;19;20442;-57
2022/11/18 03:48:53;;;;;;;25.30;14.20;;;;;;;2.12;100.00;100064.66;7393852;19;20394;-58
2022/11/18 03:51:25;;;;;;;31.53;16.73;;;;;;;1.43;100.00;100075.44;7389814;19;20958;-55
2022/11/18 03:53:58;;;;;;;22.60;13.23;;;;;;;0.86;100.00;100086.81;7392912;19;20494;-57
2022/11/18 03:56:31;;;;;;;24.37;13.80;;;;;;;0.84;100.00;100089.25;7390027;19;20435;-56
2022/11/18 03:59:07;;;;;;;30.57;15.67;;;;;;;0.87;100.00;100094.53;7391564;19;20418;-56
2022/11/18 04:01:44;;;;;;;28.53;15.33;;;;;;;0.89;100.00;100103.16;7390253;19;20417;-57
2022/11/18 04:04:14;;;;;;;29.90;14.53;;;;;;;1.08;100.00;100107.84;7392476;19;20367;-56
2022/11/18 04:06:47;;;;;;;27.50;14.60;;;;;;;0.56;100.00;100114.34;7389896;19;20409;-57
2022/11/18 04:09:21;;;;;;;28.67;15.00;;;;;;;0.32;100.00;100122.84;7394437;19;20960;-55
2022/11/18 04:12:06;;;;;;;27.50;14.23;;;;;;;0.22;100.00;100128.00;7389136;19;20402;-51
2022/11/18 04:14:38;;;;;;;25.80;13.47;;;;;;;0.13;100.00;100129.09;7391984;19;20379;-55
2022/11/18 04:17:12;;;;;;;25.10;14.73;;;;;;;0.07;100.00;100132.84;7388411;19;20396;-55
2022/11/18 04:19:42;;;;;;;27.07;14.67;;;;;;;-0.04;100.00;100137.13;7390179;19;20182;-58
2022/11/18 04:22:12;;;;;;;28.60;15.00;;;;;;;-0.07;100.00;100134.34;7390231;19;20457;-56
2022/11/18 04:24:42;;;;;;;34.47;17.00;;;;;;;-0.20;100.00;100140.16;7391636;19;20370;-58
2022/11/18 04:27:11;;;;;;;30.00;16.53;;;;;;;-0.26;100.00;100137.16;7388982;19;20458;-58
2022/11/18 04:29:41;;;;;;;31.15;16.02;;;;;;;-0.31;100.00;100139.38;7389524;19;20435;-56
2022/11/18 04:32:13;;;;;;;30.47;14.73;;;;;;;-0.37;100.00;100133.84;7388584;19;20200;-56
2022/11/18 04:34:42;;;;;;;32.83;16.70;;;;;;;-0.40;100.00;100139.53;7391309;19;20853;-56
2022/11/18 04:37:12;;;;;;;31.67;17.08;;;;;;;-0.35;100.00;100132.28;7388833;19;20546;-54
2022/11/18 04:39:41;;;;;;;35.47;16.55;;;;;;;-0.38;100.00;100134.56;7389466;19;20168;-57
2022/11/18 04:42:13;;;;;;;34.58;17.42;;;;;;;-0.41;100.00;100138.66;7384961;19;20194;-56
2022/11/18 04:44:42;;;;;;;40.58;18.63;;;;;;;-0.36;100.00;100131.38;7390780;19;20137;-58
2022/11/18 04:47:14;;;;;;;34.05;17.52;;;;;;;-0.44;100.00;100137.53;7388930;19;20190;-58
2022/11/18 04:49:44;;;;;;;35.17;16.70;;;;;;;-0.47;100.00;100140.72;7388878;19;20159;-55
2022/11/18 04:52:14;;;;;;;43.45;18.60;;;;;;;-0.50;100.00;100143.03;7387952;19;20190;-52
2022/11/18 04:54:43;;;;;;;36.20;18.55;;;;;;;-0.51;100.00;100146.31;7390167;19;20538;-55
2022/11/18 04:57:12;;;;;;;37.63;18.10;;;;;;;-0.54;100.00;100151.16;7388898;19;20190;-53
2022/11/18 04:59:42;;;;;;;37.20;18.75;;;;;;;-0.56;100.00;100153.56;7388677;19;20380;-53
2022/11/18 05:02:14;;;;;;;37.15;18.30;;;;;;;-0.54;100.00;100153.69;7387336;19;20213;-56
2022/11/18 05:04:44;;;;;;;36.15;17.80;;;;;;;-0.61;100.00;100149.78;7390249;19;20150;-54
2022/11/18 05:07:15;;;;;;;38.70;18.10;;;;;;;-0.54;100.00;100153.69;7387625;19;20672;-55
2022/11/18 05:09:45;;;;;;;37.60;16.90;;;;;;;-0.55;100.00;100149.41;7387919;19;20181;-56
2022/11/18 05:14:57;;;;;;;36.13;18.23;;;;;;;-0.59;100.00;100153.34;7390432;19;20131;-56
2022/11/18 05:17:30;;;;;;;36.85;18.77;;;;;;;-0.59;100.00;100158.41;7386571;19;20297;-56
2022/11/18 05:19:59;;;;;;;38.33;19.00;;;;;;;-0.59;100.00;100155.00;7388626;19;20624;-54
2022/11/18 05:22:29;;;;;;;39.33;17.40;;;;;;;-0.66;100.00;100155.28;7387809;19;20201;-56
2022/11/18 05:24:58;;;;;;;32.72;17.20;;;;;;;-0.69;100.00;100161.91;7389845;19;20158;-58
2022/11/18 05:27:28;;;;;;;40.25;19.67;;;;;;;-0.69;100.00;100156.84;7386638;19;20195;-51
2022/11/18 05:29:57;;;;;;;37.60;18.27;;;;;;;-0.67;100.00;100159.47;7393957;19;20162;-54
2022/11/18 05:32:29;;;;;;;38.00;18.40;;;;;;;-0.69;100.00;100166.97;7393583;19;20692;-55
2022/11/18 05:34:59;;;;;;;38.33;18.30;;;;;;;-0.69;100.00;100159.38;7396747;19;20128;-52
2022/11/18 05:37:28;;;;;;;37.03;18.50;;;;;;;-0.69;100.00;100166.97;7393122;19;20197;-58
2022/11/18 05:39:58;;;;;;;41.22;19.60;;;;;;;-0.74;100.00;100158.13;7394741;19;20158;-56
2022/11/18 05:45:10;;;;;;;38.20;18.80;;;;;;;-0.75;100.00;100166.50;7396588;19;20137;-53
2022/11/18 05:50:24;;;;;;;37.70;19.08;;;;;;;-0.71;100.00;100172.69;7391296;19;20170;-55
2022/11/18 05:52:54;;;;;;;39.13;19.55;;;;;;;-0.73;100.00;100180.16;7395122;19;20127;-57
2022/11/18 05:55:26;;;;;;;37.83;18.83;;;;;;;-0.70;100.00;100174.44;7395337;19;20131;-53
2022/11/18 05:57:55;;;;;;;35.75;18.95;;;;;;;-0.70;100.00;100180.41;7395297;19;20127;-56
2022/11/18 06:00:25;;;;;;;40.33;19.88;;;;;;;-0.75;100.00;100186.75;7387331;19;20167;-58
2022/11/18 06:02:58;;;;;;;43.00;19.77;;;;;;;-0.78;100.00;100183.97;7396129;19;20135;-52
2022/11/18 06:05:28;;;;;;;39.95;19.35;;;;;;;-0.76;100.00;100190.06;7394251;19;20127;-58
2022/11/18 06:07:58;;;;;;;41.55;19.63;;;;;;;-0.68;100.00;100188.09;7395225;19;20123;-52
2022/11/18 06:10:30;;;;;;;36.88;18.15;;;;;;;-0.72;100.00;100192.06;7391400;19;20644;-52
2022/11/18 06:13:03;;;;;;;43.83;19.38;;;;;;;-0.79;100.00;100189.81;7395100;19;20589;-51
2022/11/18 06:15:35;;;;;;;40.05;19.35;;;;;;;-0.78;100.00;100190.72;7393880;19;20580;-54
2022/11/18 06:18:09;;;;;;;42.15;19.10;;;;;;;-0.82;100.00;100197.19;7395404;19;20673;-51
2022/11/18 06:20:41;;;;;;;42.35;20.33;;;;;;;-0.84;100.00;100196.16;7391691;19;20201;-56
2022/11/18 06:23:10;;;;;;;45.13;21.10;;;;;;;-0.79;100.00;100194.88;7395535;19;20146;-56
2022/11/18 06:25:40;;;;;;;42.13;19.95;;;;;;;-0.79;100.00;100202.47;7393038;19;20225;-56
2022/11/18 06:28:12;;;;;;;38.22;18.77;;;;;;;-0.79;100.00;100205.00;7394844;19;20134;-55
2022/11/18 06:30:42;;;;;;;42.33;19.25;;;;;;;-0.83;100.00;100208.94;7390764;19;20198;-52
2022/11/18 06:33:14;;;;;;;41.53;19.38;;;;;;;-0.85;100.00;100214.66;7394118;19;20170;-57
2022/11/18 06:35:43;;;;;;;39.75;19.60;;;;;;;-0.83;100.00;100220.72;7392961;19;20186;-57
2022/11/18 06:38:13;;;;;;;39.78;18.45;;;;;;;-0.88;100.00;100220.38;7394423;19;20134;-55
2022/11/18 06:40:43;;;;;;;39.28;19.30;;;;;;;-0.85;100.00;100229.88;7389292;19;20674;-53
2022/11/18 06:48:44;;;;;;;40.40;19.15;;;;;;;-0.91;100.00;100229.38;7393803;19;20123;-52
2022/11/18 06:51:14;;;;;;;38.95;19.27;;;;;;;-0.88;100.00;100239.78;7392182;19;20257;-56
2022/11/18 06:53:44;;;;;;;42.10;20.52;;;;;;;-0.99;100.00;100239.78;7395383;19;20510;-58
2022/11/18 06:56:15;;;;;;;44.78;20.85;;;;;;;-0.98;100.00;100251.69;7389331;19;20869;-58
2022/11/18 06:58:45;;;;;;;47.83;21.00;;;;;;;-0.94;100.00;100249.41;7393908;19;20143;-58
2022/11/18 07:01:15;;;;;;;44.25;19.75;;;;;;;-0.90;100.00;100262.44;7391442;19;20194;-60
2022/11/18 07:03:48;;;;;;;40.70;19.58;;;;;;;-0.91;100.00;100265.75;7394361;19;20164;-59
2022/11/18 07:06:19;;;;;;;38.28;18.65;;;;;;;-0.92;100.00;100253.81;7391328;19;20194;-58
2022/11/18 07:08:49;;;;;;;38.75;18.38;;;;;;;-0.88;100.00;100265.09;7392844;19;20130;-55
2022/11/18 07:11:20;;;;;;;33.60;17.33;;;;;;;-0.85;100.00;100268.75;7390575;19;20194;-59
2022/11/18 07:13:49;;;;;;;38.90;18.77;;;;;;;-0.83;100.00;100268.84;7392884;19;20585;-58
2022/11/18 07:16:20;;;;;;;41.53;17.90;;;;;;;-0.81;100.00;100285.09;7390945;19;20198;-54
2022/11/18 07:18:54;;;;;;;37.03;18.17;;;;;;;-0.85;100.00;100283.06;7392609;19;20142;-53
2022/11/18 07:21:25;;;;;;;43.75;20.10;;;;;;;-0.85;100.00;100285.59;7390781;19;20198;-62
2022/11/18 07:23:54;;;;;;;39.10;18.90;;;;;;;-0.85;100.00;100288.13;7393700;19;20484;-55
2022/11/18 07:26:24;;;;;;;44.13;19.98;;;;;;;0.72;100.00;100294.09;7390645;19;20807;-56
2022/11/18 07:28:55;;;;;;;51.03;23.50;;;;;;;1.00;100.00;100293.56;7393378;19;20127;-53
2022/11/18 07:31:24;;;;;;;125.90;52.83;;;;;;;1.79;100.00;100300.81;7387940;19;20194;-58
2022/11/18 07:33:57;;;;;;;42.10;21.50;;;;;;;1.16;100.00;100295.56;7392233;19;20589;-58
2022/11/18 07:36:27;;;;;;;39.23;19.93;;;;;;;0.38;100.00;100308.59;7390242;19;20394;-56
2022/11/18 07:39:04;;;;;;;46.20;22.67;;;;;;;0.09;100.00;100330.06;7392161;19;20375;-55
2022/11/18 07:41:34;;;;;;;43.07;20.70;;;;;;;0.10;100.00;100326.78;7389605;19;20415;-54
2022/11/18 07:44:06;;;;;;;37.33;17.90;;;;;;;-0.02;100.00;100347.00;7392759;19;20755;-57
2022/11/18 07:46:36;;;;;;;43.77;20.77;;;;;;;0.15;100.00;100349.09;7390606;19;20454;-57
2022/11/18 07:49:10;;;;;;;37.67;20.13;;;;;;;0.15;100.00;100347.41;7392300;19;20928;-58
2022/11/18 07:51:41;;;;;;;40.70;19.67;;;;;;;0.06;100.00;100365.34;7387535;19;20430;-61
2022/11/18 07:54:12;;;;;;;31.45;17.02;;;;;;;-0.19;100.00;100365.09;7391566;19;20127;-61
2022/11/18 07:56:42;;;;;;;37.15;18.90;;;;;;;-0.22;100.00;100373.34;7389319;19;20265;-62
2022/11/18 07:59:11;;;;;;;36.50;18.63;;;;;;;-0.11;100.00;100375.84;7395684;19;20119;-60
2022/11/18 08:01:41;;;;;;;44.17;20.70;;;;;;;-0.11;100.00;100378.38;7389109;19;20208;-60
2022/11/18 08:04:14;;;;;;;37.93;18.40;;;;;;;-0.06;100.00;100385.59;7392033;19;20376;-59
2022/11/18 08:06:43;;;;;;;50.40;24.00;;;;;;;-0.02;100.00;100389.25;7389384;19;20747;-60
2022/11/18 08:09:13;;;;;;;45.35;21.38;;;;;;;0.58;100.00;100385.38;7390757;19;20130;-57
2022/11/18 08:11:46;;;;;;;67.40;29.77;;;;;;;1.80;100.00;100384.84;7388880;19;20940;-57
2022/11/18 08:14:15;;;;;;;104.50;41.27;;;;;;;1.78;100.00;100393.19;7390891;19;20380;-58
2022/11/18 08:16:45;;;;;;;52.53;24.67;;;;;;;1.77;100.00;100401.56;7389092;19;20406;-61
2022/11/18 08:19:17;;;;;;;65.47;28.60;;;;;;;2.38;100.00;100399.03;7391275;19;20401;-57
2022/11/18 08:21:47;;;;;;;35.60;19.10;;;;;;;2.34;100.00;100412.31;7389180;19;20409;-60
2022/11/18 08:24:16;;;;;;;50.53;25.37;;;;;;;2.11;100.00;100414.16;7391549;19;20394;-56
2022/11/18 08:26:46;;;;;;;51.43;25.57;;;;;;;2.74;100.00;100422.69;7388722;19;20422;-61
2022/11/18 08:29:15;;;;;;;38.93;19.70;;;;;;;2.48;100.00;100426.00;7390777;19;20395;-58
2022/11/18 08:31:53;;;;;;;36.63;17.30;;;;;;;2.51;100.00;100436.41;7388671;19;20403;-55
2022/11/18 08:34:25;;;;;;;30.83;15.57;;;;;;;2.46;100.00;100446.25;7390487;19;20394;-60
2022/11/18 08:36:54;;;;;;;30.73;15.67;;;;;;;2.45;100.00;100451.28;7389961;19;20430;-59
2022/11/18 08:39:25;;;;;;;27.80;15.00;;;;;;;2.31;100.00;100463.03;7390348;19;20400;-58
2022/11/18 08:41:54;;;;;;;24.43;14.03;;;;;;;2.54;100.00;100468.06;7388856;19;20409;-59
2022/11/18 08:44:24;;;;;;;23.57;13.60;;;;;;;1.93;100.00;100475.69;7390916;19;20377;-62
2022/11/18 08:46:53;;;;;;;22.73;12.93;;;;;;;2.42;100.00;100479.94;7388779;19;20415;-58
2022/11/18 08:49:25;;;;;;;25.60;13.90;;;;;;;1.89;100.00;100484.75;7390858;19;20395;-56
2022/11/18 08:52:00;;;;;;;27.37;14.60;;;;;;;1.28;100.00;100504.03;7387358;19;20955;-56
2022/11/18 08:54:30;;;;;;;21.37;11.90;;;;;;;1.85;100.00;100497.16;7390340;19;20768;-60
2022/11/18 08:56:59;;;;;;;24.97;13.63;;;;;;;2.17;100.00;100503.69;7387478;19;20432;-58
2022/11/18 08:59:29;;;;;;;28.43;12.43;;;;;;;1.89;100.00;100517.84;7390077;19;20407;-59
2022/11/18 09:01:58;;;;;;;22.07;12.63;;;;;;;1.81;100.00;100518.03;7387472;19;20386;-57
2022/11/18 09:04:31;;;;;;;41.43;21.17;;;;;;;2.04;100.00;100521.38;7401334;19;20818;-62
2022/11/18 09:07:01;;;;;;;26.63;14.53;;;;;;;1.27;100.00;100550.56;7396568;19;20422;-57
2022/11/18 09:09:31;;;;;;;28.67;15.00;;;;;;;0.72;100.00;100554.03;7395574;19;20923;-59
2022/11/18 09:12:01;;;;;;;38.37;18.67;;;;;;;0.76;100.00;100550.06;7392939;19;20441;-61
2022/11/18 09:14:30;;;;;;;26.60;13.60;;;;;;;0.80;100.00;100547.00;7397222;19;20413;-59
2022/11/18 09:17:20;;;;;;;23.43;11.50;;;;;;;0.52;100.00;100560.09;7394733;19;20407;-56
2022/11/18 09:19:52;;;;;;;20.13;10.90;;;;;;;0.25;100.00;100562.19;7399598;19;20415;-56
2022/11/18 09:22:21;;;;;;;22.40;11.10;;;;;;;0.13;100.00;100568.06;7394460;19;20744;-56
2022/11/18 09:24:51;;;;;;;21.13;11.27;;;;;;;0.31;100.00;100555.06;7397245;19;20391;-61
2022/11/18 09:27:23;;;;;;;18.13;10.10;;;;;;;0.59;100.00;100554.72;7395767;19;20435;-59
2022/11/18 09:29:53;;;;;;;19.10;10.18;;;;;;;0.52;100.00;100562.63;7397005;19;20387;-61
2022/11/18 09:32:22;;;;;;;18.07;10.03;;;;;;;0.35;100.00;100559.63;7394507;19;20194;-57
2022/11/18 09:34:54;;;;;;;20.40;10.57;;;;;;;0.49;100.00;100564.91;7395836;19;20391;-60
2022/11/18 09:37:24;;;;;;;19.17;9.57;;;;;;;0.51;100.00;100563.41;7393699;19;20422;-61
2022/11/18 09:39:54;;;;;;;15.90;9.40;;;;;;;0.51;100.00;100568.47;7396274;19;20366;-61
2022/11/18 09:42:36;;;;;;;21.67;10.63;;;;;;;0.65;100.00;100567.91;7393906;19;20433;-60
2022/11/18 09:45:14;;;;;;;14.40;8.90;;;;;;;0.60;100.00;100575.91;7395714;19;20402;-63
2022/11/18 09:47:52;;;;;;;17.77;10.03;;;;;;;0.59;100.00;100580.13;7398138;19;21045;-61
2022/11/18 09:50:24;;;;;;;18.50;9.70;;;;;;;0.67;100.00;100589.22;7391151;19;20426;-63
2022/11/18 09:53:19;;;;;;;21.03;11.17;;;;;;;0.73;100.00;100588.84;7399488;19;20394;-58
2022/11/18 09:55:50;;;;;;;17.57;10.50;;;;;;;0.74;100.00;100585.53;7393738;19;20399;-59
2022/11/18 09:58:23;;;;;;;22.33;10.10;;;;;;;0.78;100.00;100589.19;7396106;19;20464;-62
2022/11/18 10:00:53;;;;;;;17.87;9.60;;;;;;;0.82;100.00;100591.19;7370142;19;20732;-59
2022/11/18 10:03:29;;;;;;;25.30;12.63;;;;;;;0.98;100.00;100592.41;7396298;19;20905;-60
2022/11/18 10:06:06;;;;;;;17.53;9.33;;;;;;;1.02;100.00;100599.50;7387633;19;20397;-60
2022/11/18 10:08:44;;;;;;;16.90;8.90;;;;;;;1.24;100.00;100596.06;7398147;19;20382;-62
2022/11/18 10:11:16;;;;;;;37.80;17.97;;;;;;;1.12;100.00;100599.44;7386378;19;20404;-60
2022/11/18 10:13:56;;;;;;;19.50;9.10;;;;;;;1.25;100.00;100610.53;7394370;19;20721;-62
2022/11/18 10:16:38;;;;;;;20.73;10.70;;;;;;;1.00;100.00;100621.34;7392303;19;20435;-62
2022/11/18 10:19:14;;;;;;;14.73;7.97;;;;;;;1.28;100.00;100618.41;7396545;19;20396;-60
2022/11/18 10:21:53;;;;;;;13.80;8.10;;;;;;;1.26;100.00;100623.38;7389385;19;20410;-59
2022/11/18 10:24:25;;;;;;;19.13;9.83;;;;;;;1.17;100.00;100618.47;7396703;19;20414;-61
2022/11/18 10:26:57;;;;;;;26.73;13.23;;;;;;;1.31;100.00;100634.78;7391863;19;21060;-63
2022/11/18 10:29:27;;;;;;;13.10;7.37;;;;;;;1.48;100.00;100638.63;7391708;19;20383;-61
2022/11/18 10:32:07;;;;;;;16.43;8.90;;;;;;;1.24;100.00;100636.72;7391690;19;20514;-62
2022/11/18 10:34:48;;;;;;;11.77;6.57;;;;;;;1.12;100.00;100651.94;7394347;19;20744;-60
2022/11/18 10:37:29;;;;;;;11.73;6.90;;;;;;;1.39;100.00;100655.69;7379447;19;20418;-60
2022/11/18 10:40:26;;;;;;;15.90;7.80;;;;;;;1.46;100.00;100657.97;7393250;19;20378;-59
2022/11/18 10:42:55;;;;;;;25.10;12.13;;;;;;;1.41;100.00;100664.34;7392525;19;20389;-60
2022/11/18 10:45:30;;;;;;;50.50;24.93;;;;;;;1.93;100.00;100661.44;7388404;19;20383;-61
2022/11/18 10:48:08;;;;;;;45.17;22.80;;;;;;;1.77;100.00;100666.16;7393188;19;20395;-62
2022/11/18 10:50:40;;;;;;;66.40;31.17;;;;;;;2.37;100.00;100662.09;7390255;19;22152;-61
2022/11/18 10:53:31;;;;;;;24.43;12.33;;;;;;;2.22;100.00;100678.03;7394329;19;20664;-62
2022/11/18 10:56:02;;;;;;;14.90;8.07;;;;;;;1.91;100.00;100691.00;7390987;19;20402;-59
2022/11/18 10:58:33;;;;;;;23.80;12.60;;;;;;;1.51;100.00;100687.94;7396660;19;20996;-62
2022/11/18 11:01:21;;;;;;;14.07;7.20;;;;;;;1.38;100.00;100694.59;7390196;19;20417;-59
2022/11/18 11:03:58;;;;;;;10.97;6.10;;;;;;;1.11;100.00;100700.97;7393883;19;20405;-59
2022/11/18 11:06:33;;;;;;;11.63;6.60;;;;;;;0.73;100.00;100698.06;7390228;19;20415;-62
2022/11/18 11:09:08;;;;;;;31.10;12.47;;;;;;;0.71;100.00;100703.78;7392479;19;20749;-59
2022/11/18 11:11:42;;;;;;;13.37;7.13;;;;;;;0.71;100.00;100702.09;7388585;19;21009;-61
2022/11/18 11:14:25;;;;;;;12.50;6.20;;;;;;;0.75;100.00;100701.59;7391990;19;20424;-59
2022/11/18 11:16:59;;;;;;;10.40;5.70;;;;;;;0.83;100.00;100706.41;7390421;19;21359;-59
2022/11/18 11:19:37;;;;;;;20.70;9.30;;;;;;;0.80;100.00;100701.97;7394660;19;20440;-60
2022/11/18 11:22:10;;;;;;;12.57;6.65;;;;;;;0.78;100.00;100703.50;7389145;19;20398;-57
2022/11/18 11:24:42;;;;;;;11.63;5.80;;;;;;;0.82;100.00;100702.97;7392526;19;20141;-63
2022/11/18 11:27:27;;;;;;;13.63;7.40;;;;;;;0.92;100.00;100704.63;7384153;19;20442;-62
2022/11/18 11:30:20;;;;;;;12.23;5.67;;;;;;;0.93;100.00;100717.41;7392261;19;20927;-59
2022/11/18 11:33:11;;;;;;;12.10;6.60;;;;;;;0.78;100.00;100711.13;7390862;19;20426;-61
2022/11/18 11:35:53;;;;;;;12.10;6.00;;;;;;;0.93;100.00;100712.34;7387779;19;20979;-62
2022/11/18 11:38:32;;;;;;;13.83;6.90;;;;;;;0.99;100.00;100726.28;7392303;19;20779;-59
2022/11/18 11:41:08;;;;;;;11.17;5.93;;;;;;;0.94;100.00;100716.63;7389276;19;20432;-62
2022/11/18 11:43:47;;;;;;;9.50;5.77;;;;;;;0.98;100.00;100729.59;7396694;19;20399;-62
2022/11/18 11:46:27;;;;;;;12.97;6.60;;;;;;;0.91;100.00;100734.19;7389471;19;20411;-62
2022/11/18 11:49:01;;;;;;;15.43;5.93;;;;;;;0.88;100.00;100731.41;7391408;19;20366;-62
2022/11/18 11:51:35;;;;;;;8.77;5.10;;;;;;;0.94;100.00;100734.44;7382533;19;20402;-59
2022/11/18 11:54:35;;;;;;;8.70;5.10;;;;;;;0.98;100.00;100738.13;7392340;19;20382;-63
2022/11/18 11:57:16;;;;;;;23.60;10.17;;;;;;;1.02;100.00;100739.25;7387230;19;20459;-62